Time;durP1;ratioP1;P1;durP2;ratioP2;P2;SDS_P1;SDS_P2;PMS_P1;PMS_P2;Temp;Humidity;BMP_temperature;BMP_pressure;BME280_temperature;BME280_humidity;BME280_pressure;Samples;Min_cycle;Max_cycle;Signal;HPM_P1;HPM_P2
2024/01/11 00:00:22;;;;;;;;;56.25;42.75;;;;;1.11;55.33;102113.97;5071932;28;45302;-78
2024/01/11 00:02:48;;;;;;;;;51.75;41.50;;;;;1.82;55.35;102247.03;5055544;28;46599;-78
2024/01/11 00:05:13;;;;;;;;;44.75;39.50;;;;;1.80;55.16;102247.06;5055543;28;45632;-79
2024/01/11 00:07:38;;;;;;;;;54.50;42.00;;;;;1.89;56.17;102266.88;5055587;28;45532;-77
2024/01/11 00:10:04;;;;;;;;;55.50;41.50;;;;;1.67;56.10;102273.75;5065155;28;45414;-76
2024/01/11 00:12:31;;;;;;;;;61.25;44.50;;;;;1.56;56.15;102265.34;5054461;28;46388;-78
2024/01/11 00:14:58;;;;;;;;;49.00;41.00;;;;;1.38;56.06;102245.81;5073798;28;45076;-78
2024/01/11 00:17:24;;;;;;;;;51.50;39.50;;;;;1.39;56.67;102242.28;5073925;28;45269;-77
2024/01/11 00:19:50;;;;;;;;;47.00;41.25;;;;;1.43;56.80;102250.03;5073969;28;45278;-77
2024/01/11 00:22:15;;;;;;;;;46.75;38.00;;;;;1.30;56.81;102243.44;5071224;28;45121;-79
2024/01/11 00:24:41;;;;;;;;;53.00;41.25;;;;;1.13;57.11;102224.78;5071020;28;45195;-78
2024/01/11 00:27:06;;;;;;;;;42.50;38.50;;;;;1.23;57.24;102247.19;5070415;28;44922;-78
2024/01/11 00:29:32;;;;;;;;;63.50;43.25;;;;;1.18;57.00;102225.47;5068588;28;45319;-77
2024/01/11 00:31:58;;;;;;;;;47.75;40.25;;;;;1.25;57.28;102255.84;5044205;28;46860;-78
2024/01/11 00:34:23;;;;;;;;;50.50;40.25;;;;;1.08;57.01;102224.06;5052963;28;45383;-77
2024/01/11 00:36:49;;;;;;;;;50.75;41.50;;;;;1.38;57.30;102266.78;5053030;28;45078;-78
2024/01/11 00:39:14;;;;;;;;;50.50;41.75;;;;;1.35;57.07;102257.25;5054619;28;45314;-79
2024/01/11 00:41:40;;;;;;;;;56.50;42.00;;;;;1.56;56.57;102289.78;5070514;28;45378;-78
2024/01/11 00:44:05;;;;;;;;;55.75;42.00;;;;;1.14;57.21;102239.59;5071778;28;45169;-77
2024/01/11 00:46:31;;;;;;;;;53.75;44.00;;;;;0.83;57.50;102206.50;5090985;28;44978;-76
2024/01/11 00:48:56;;;;;;;;;43.25;38.50;;;;;1.15;57.57;102270.97;5091065;28;45173;-76
2024/01/11 00:51:21;;;;;;;;;49.75;40.75;;;;;1.35;57.89;102301.81;5070676;28;45150;-78
2024/01/11 00:53:47;;;;;;;;;48.00;40.25;;;;;1.21;58.05;102283.06;5068994;28;44947;-76
2024/01/11 00:56:19;;;;;;;;;45.50;38.75;;;;;1.27;57.59;102303.81;5070286;28;45433;-77
2024/01/11 00:58:44;;;;;;;;;50.25;37.75;;;;;1.10;58.13;102279.88;5072764;28;45063;-77
2024/01/11 01:01:10;;;;;;;;;51.50;44.25;;;;;1.26;58.00;102302.09;5090126;28;45192;-76
2024/01/11 01:03:36;;;;;;;;;51.75;42.00;;;;;0.79;58.37;102235.41;5093276;28;45131;-77
2024/01/11 01:06:02;;;;;;;;;57.25;41.50;;;;;1.11;57.71;102276.34;5093243;28;45120;-78
2024/01/11 01:08:28;;;;;;;;;44.25;39.00;;;;;1.23;58.36;102304.81;5092866;28;45005;-79
2024/01/11 01:10:53;;;;;;;;;43.50;38.00;;;;;1.00;58.23;102270.56;5072907;28;46422;-76
2024/01/11 01:13:18;;;;;;;;;56.75;43.25;;;;;1.17;58.30;102300.59;5092144;28;45079;-77
2024/01/11 01:15:44;;;;;;;;;49.50;40.50;;;;;1.00;58.40;102275.81;5074285;28;45507;-78
2024/01/11 01:18:09;;;;;;;;;45.50;40.25;;;;;0.77;58.28;102227.59;5093012;28;45235;-78
2024/01/11 01:20:34;;;;;;;;;49.75;41.00;;;;;1.04;57.98;102256.50;5091463;28;45037;-77
2024/01/11 01:23:00;;;;;;;;;48.50;39.50;;;;;1.30;57.92;102284.53;5076533;28;45019;-77
2024/01/11 01:25:25;;;;;;;;;46.00;40.25;;;;;1.35;57.95;102303.56;5054119;28;45021;-76
2024/01/11 01:27:51;;;;;;;;;40.75;34.00;;;;;1.16;57.78;102287.53;5073439;28;45268;-78
2024/01/11 01:30:16;;;;;;;;;55.25;42.50;;;;;1.01;58.25;102261.84;5080419;28;45801;-77
2024/01/11 01:32:41;;;;;;;;;51.50;40.75;;;;;1.05;58.23;102277.41;5093355;28;44976;-77
2024/01/11 01:35:07;;;;;;;;;48.75;39.00;;;;;1.28;58.17;102312.53;5093619;28;45225;-78
2024/01/11 01:37:33;;;;;;;;;46.00;37.50;;;;;1.34;58.26;102317.56;5092662;28;44965;-78
2024/01/11 01:39:58;;;;;;;;;53.75;41.25;;;;;1.37;58.29;102318.34;5085138;28;45455;-79
2024/01/11 01:42:23;;;;;;;;;49.25;39.25;;;;;1.38;57.81;102321.81;5082397;28;45132;-78
2024/01/11 01:44:49;;;;;;;;;54.00;42.00;;;;;1.11;58.02;102295.56;5095196;28;44899;-77
2024/01/11 01:47:14;;;;;;;;;40.33;34.33;;;;;1.19;58.07;102316.25;5092437;28;45104;-76
2024/01/11 01:49:40;;;;;;;;;44.00;37.25;;;;;0.89;58.44;102295.31;5088913;28;45179;-76
2024/01/11 01:52:07;;;;;;;;;49.50;42.25;;;;;0.96;58.85;102319.56;5092414;28;44674;-76
2024/01/11 01:54:33;;;;;;;;;50.50;40.75;;;;;1.03;58.77;102330.72;5091602;28;45123;-78
2024/01/11 01:57:00;;;;;;;;;51.00;39.75;;;;;1.14;58.53;102353.06;5073684;28;45303;-76
2024/01/11 01:59:27;;;;;;;;;59.25;45.25;;;;;1.09;58.75;102357.59;5091417;28;45232;-74
2024/01/11 02:01:53;;;;;;;;;59.25;41.75;;;;;1.10;59.09;102356.69;5091939;28;44962;-76
2024/01/11 02:04:19;;;;;;;;;54.00;41.00;;;;;1.21;59.01;102354.63;5087803;28;45671;-77
2024/01/11 02:06:47;;;;;;;;;43.75;38.75;;;;;1.03;58.79;102334.22;5068067;28;45409;-76
2024/01/11 02:09:14;;;;;;;;;53.50;43.75;;;;;0.86;58.68;102310.25;5052869;28;45477;-76
2024/01/11 02:11:41;;;;;;;;;57.50;42.50;;;;;1.12;58.74;102364.50;5034956;28;45502;-76
2024/01/11 02:14:07;;;;;;;;;53.25;42.75;;;;;0.90;58.47;102323.22;5054156;28;45369;-76
2024/01/11 02:16:32;;;;;;;;;52.00;40.50;;;;;1.12;58.75;102359.25;5053915;28;45333;-76
2024/01/11 02:18:58;;;;;;;;;39.00;35.00;;;;;1.25;58.61;102365.88;5053431;28;45944;-78
2024/01/11 02:21:25;;;;;;;;;48.00;42.00;;;;;1.19;58.64;102364.28;5054849;28;45406;-77
2024/01/11 02:24:04;;;;;;;;;52.25;41.00;;;;;1.23;58.58;102378.16;5054618;28;45288;-76
2024/01/11 02:26:30;;;;;;;;;51.00;41.25;;;;;1.26;58.44;102377.22;5054506;28;45316;-77
2024/01/11 02:28:55;;;;;;;;;42.75;39.00;;;;;1.20;58.25;102366.03;5071776;28;46083;-77
2024/01/11 02:31:21;;;;;;;;;42.50;36.75;;;;;1.10;58.29;102354.06;5089446;28;45248;-76
2024/01/11 02:33:47;;;;;;;;;39.75;32.50;;;;;1.04;58.54;102356.88;5089947;28;44952;-76
2024/01/11 02:36:13;;;;;;;;;50.25;41.75;;;;;1.08;58.78;102376.84;5089798;28;45322;-77
2024/01/11 02:38:42;;;;;;;;;58.75;44.25;;;;;1.19;58.85;102393.09;5082206;28;45205;-78
2024/01/11 02:41:07;;;;;;;;;51.50;39.25;;;;;1.06;59.12;102385.66;5069349;28;45125;-77
2024/01/11 02:43:35;;;;;;;;;46.50;40.75;;;;;1.09;59.34;102385.56;5072134;28;45124;-77
2024/01/11 02:46:01;;;;;;;;;34.75;28.50;;;;;1.08;59.41;102387.31;5072801;28;45205;-77
2024/01/11 02:48:30;;;;;;;;;54.25;43.75;;;;;0.90;58.91;102361.63;5076816;28;45248;-78
2024/01/11 02:50:57;;;;;;;;;45.75;38.75;;;;;1.03;59.57;102385.72;5093591;28;45116;-77
2024/01/11 02:53:23;;;;;;;;;45.50;39.00;;;;;1.11;58.87;102391.59;5093575;28;45103;-78
2024/01/11 02:55:49;;;;;;;;;51.50;42.00;;;;;1.18;59.23;102387.91;5093430;28;45250;-77
2024/01/11 02:58:15;;;;;;;;;59.25;42.25;;;;;1.08;58.67;102362.88;5089175;28;45233;-77
2024/01/11 03:00:40;;;;;;;;;54.25;42.25;;;;;1.21;58.90;102383.47;5071342;28;45288;-77
2024/01/11 03:03:05;;;;;;;;;48.50;41.25;;;;;1.13;58.84;102353.13;5071624;28;44978;-77
2024/01/11 03:05:31;;;;;;;;;50.50;42.50;;;;;1.28;58.38;102383.28;5072399;28;45199;-76
2024/01/11 03:07:56;;;;;;;;;45.50;38.00;;;;;1.28;58.95;102391.13;5085222;28;45707;-78
2024/01/11 03:10:21;;;;;;;;;47.25;40.75;;;;;1.32;57.92;102382.28;5076937;28;45537;-77
2024/01/11 03:12:49;;;;;;;;;54.25;41.50;;;;;1.17;58.51;102367.84;5056530;28;45382;-79
2024/01/11 03:15:15;;;;;;;;;52.00;42.00;;;;;1.19;58.41;102369.50;5056513;28;45621;-77
2024/01/11 03:17:41;;;;;;;;;48.25;42.25;;;;;1.39;58.30;102400.38;5056132;28;45778;-76
2024/01/11 03:20:07;;;;;;;;;48.50;40.75;;;;;1.06;58.70;102344.59;5056113;28;45249;-77
2024/01/11 03:22:33;;;;;;;;;42.00;38.00;;;;;1.40;58.26;102402.13;5038316;28;45412;-76
2024/01/11 03:24:58;;;;;;;;;51.75;43.50;;;;;1.28;57.96;102373.66;5059126;28;45430;-77
2024/01/11 03:27:23;;;;;;;;;39.25;34.50;;;;;1.41;58.39;102387.25;5053855;28;48323;-77
2024/01/11 03:29:49;;;;;;;;;46.75;37.75;;;;;1.40;57.93;102399.50;5071317;28;45359;-78
2024/01/11 03:32:15;;;;;;;;;52.75;40.75;;;;;1.14;58.42;102389.75;5088197;28;45210;-77
2024/01/11 03:34:40;;;;;;;;;56.00;41.25;;;;;1.12;58.38;102390.69;5073695;28;45088;-78
2024/01/11 03:37:06;;;;;;;;;46.50;33.75;;;;;1.14;59.02;102383.66;5055250;28;46350;-77
2024/01/11 03:39:31;;;;;;;;;51.25;42.25;;;;;1.26;58.64;102401.66;5073851;28;45099;-76
2024/01/11 03:41:57;;;;;;;;;43.50;38.50;;;;;1.25;58.48;102397.31;5089324;28;45484;-76
2024/01/11 03:44:22;;;;;;;;;49.50;39.50;;;;;1.29;58.33;102391.09;5092562;28;45150;-78
2024/01/11 03:46:48;;;;;;;;;48.50;42.00;;;;;1.02;57.79;102353.44;5091946;27;45285;-76
2024/01/11 03:49:14;;;;;;;;;47.75;39.50;;;;;1.13;58.19;102374.06;5075381;28;44967;-77
2024/01/11 03:51:39;;;;;;;;;47.25;38.75;;;;;1.19;58.00;102381.75;5080849;28;45110;-78
2024/01/11 03:54:05;;;;;;;;;54.50;41.50;;;;;1.30;57.86;102410.28;5080368;27;45116;-76
2024/01/11 03:56:30;;;;;;;;;50.00;39.50;;;;;1.25;58.37;102393.84;5073816;28;45711;-78
2024/01/11 03:58:55;;;;;;;;;54.75;41.00;;;;;1.26;58.10;102409.50;5073559;28;44979;-77
2024/01/11 04:01:22;;;;;;;;;47.50;41.00;;;;;1.21;58.49;102412.28;5057990;28;45140;-78
2024/01/11 04:03:49;;;;;;;;;44.50;39.25;;;;;1.08;58.17;102378.59;5073304;28;45044;-77
2024/01/11 04:06:21;;;;;;;;;56.75;44.50;;;;;1.09;58.44;102388.16;5073571;28;45155;-78
2024/01/11 04:08:47;;;;;;;;;45.50;40.50;;;;;0.91;58.17;102364.22;5074777;28;45176;-77
2024/01/11 04:11:13;;;;;;;;;49.25;38.25;;;;;1.05;58.70;102399.63;5081169;28;44961;-77
2024/01/11 04:13:39;;;;;;;;;43.50;40.75;;;;;1.08;59.05;102407.41;5079488;28;45000;-78
2024/01/11 04:16:05;;;;;;;;;53.00;42.75;;;;;0.94;58.79;102396.44;5071644;28;45077;-77
2024/01/11 04:18:31;;;;;;;;;53.50;41.25;;;;;0.70;59.89;102367.41;5091254;28;44854;-76
2024/01/11 04:20:56;;;;;;;;;54.25;40.75;;;;;0.89;59.51;102410.53;5091235;28;45440;-77
2024/01/11 04:23:21;;;;;;;;;44.25;40.50;;;;;0.66;59.10;102381.50;5075710;28;45258;-77
2024/01/11 04:25:47;;;;;;;;;46.00;41.25;;;;;0.88;59.45;102423.66;5075458;28;47295;-76
2024/01/11 04:28:12;;;;;;;;;51.50;41.75;;;;;0.74;59.48;102416.16;5090570;28;45177;-78
2024/01/11 04:30:37;;;;;;;;;52.25;42.75;;;;;0.49;59.68;102386.31;5089863;28;44894;-77
2024/01/11 04:33:03;;;;;;;;;48.75;38.00;;;;;0.67;59.58;102430.31;5055008;28;44999;-78
2024/01/11 04:35:28;;;;;;;;;53.50;43.25;;;;;0.73;60.21;102440.63;5063213;28;45319;-77
2024/01/11 04:37:54;;;;;;;;;45.75;38.25;;;;;0.53;60.07;102416.72;5058196;28;45332;-77
2024/01/11 04:40:19;;;;;;;;;52.25;42.00;;;;;0.57;60.23;102431.44;5080881;28;45498;-76
2024/01/11 04:42:44;;;;;;;;;57.25;44.75;;;;;0.54;60.55;102442.00;5077342;28;44943;-76
2024/01/11 04:45:09;;;;;;;;;55.00;39.00;;;;;0.38;60.74;102417.09;5093022;28;45553;-76
2024/01/11 04:47:35;;;;;;;;;49.50;42.75;;;;;0.34;60.17;102394.53;5093704;28;45225;-76
2024/01/11 04:50:00;;;;;;;;;42.75;39.00;;;;;0.65;60.43;102437.34;5092765;28;45027;-77
2024/01/11 04:52:26;;;;;;;;;48.50;42.00;;;;;0.69;59.45;102439.00;5092953;28;45180;-76
2024/01/11 04:54:51;;;;;;;;;54.75;43.00;;;;;0.28;59.94;102370.25;5085875;28;45358;-75
2024/01/11 04:57:16;;;;;;;;;45.33;39.67;;;;;0.69;60.01;102425.03;5050956;28;45303;-77
2024/01/11 04:59:42;;;;;;;;;52.25;41.75;;;;;0.64;59.70;102411.22;5060088;28;47107;-76
2024/01/11 05:02:08;;;;;;;;;47.50;32.50;;;;;0.63;59.85;102409.50;5064728;28;45627;-77
2024/01/11 05:04:33;;;;;;;;;50.25;38.25;;;;;0.79;59.75;102429.97;5070814;28;45691;-77
2024/01/11 05:06:58;;;;;;;;;45.75;39.00;;;;;0.57;59.08;102387.81;5071012;28;45209;-77
2024/01/11 05:09:24;;;;;;;;;48.75;41.00;;;;;0.77;59.43;102421.31;5070498;28;45884;-78
2024/01/11 05:11:49;;;;;;;;;46.00;39.50;;;;;0.75;59.54;102424.88;5078231;28;45166;-77
2024/01/11 05:14:14;;;;;;;;;50.25;41.25;;;;;0.85;59.92;102445.56;5090854;28;45301;-78
2024/01/11 05:16:41;;;;;;;;;44.25;37.75;;;;;0.83;60.00;102438.63;5091357;28;44951;-76
2024/01/11 05:19:07;;;;;;;;;53.75;41.25;;;;;0.70;59.87;102419.75;5090622;28;45043;-76
2024/01/11 05:21:32;;;;;;;;;55.50;43.00;;;;;0.74;59.70;102420.53;5085733;28;45158;-75
2024/01/11 05:23:57;;;;;;;;;44.25;38.50;;;;;0.51;59.51;102385.34;5070702;28;46962;-76
2024/01/11 05:26:23;;;;;;;;;39.50;34.50;;;;;0.63;59.40;102397.28;5090370;28;45105;-77
2024/01/11 05:28:48;;;;;;;;;45.75;36.75;;;;;0.79;59.71;102429.13;5053662;28;45672;-78
2024/01/11 05:31:15;;;;;;;;;43.25;35.25;;;;;0.87;59.89;102438.50;5072288;28;45191;-76
2024/01/11 05:33:41;;;;;;;;;55.75;42.00;;;;;0.94;59.77;102430.50;5091986;28;45636;-76
2024/01/11 05:36:07;;;;;;;;;55.25;41.25;;;;;1.09;59.43;102443.19;5073567;28;45037;-79
2024/01/11 05:38:33;;;;;;;;;49.50;38.25;;;;;1.00;59.27;102417.22;5092869;28;44968;-76
2024/01/11 05:40:59;;;;;;;;;49.50;37.75;;;;;1.20;59.00;102447.22;5093340;28;45197;-78
2024/01/11 05:43:24;;;;;;;;;48.75;40.75;;;;;1.18;58.99;102450.78;5084832;28;45473;-77
2024/01/11 05:45:50;;;;;;;;;48.50;39.25;;;;;0.95;59.27;102419.09;5053838;28;45202;-76
2024/01/11 05:48:17;;;;;;;;;38.25;29.75;;;;;0.48;58.84;102329.63;5072328;28;45017;-76
2024/01/11 05:50:43;;;;;;;;;52.00;43.50;;;;;0.82;58.62;102387.19;5071864;28;44954;-76
2024/01/11 05:53:08;;;;;;;;;41.25;36.25;;;;;0.76;59.15;102387.31;5088867;28;46268;-78
2024/01/11 05:55:34;;;;;;;;;41.00;37.25;;;;;1.02;58.91;102446.88;5091698;28;44908;-76
2024/01/11 05:57:59;;;;;;;;;41.25;37.75;;;;;1.11;58.93;102436.13;5070586;28;45703;-75
2024/01/11 06:00:27;;;;;;;;;46.00;38.25;;;;;0.88;58.45;102384.38;5050680;28;46274;-78
2024/01/11 06:02:53;;;;;;;;;43.50;39.00;;;;;1.18;58.66;102459.47;5071146;28;45256;-77
2024/01/11 06:05:18;;;;;;;;;45.00;39.00;;;;;1.20;58.66;102467.28;5053285;28;45090;-75
2024/01/11 06:07:43;;;;;;;;;43.75;36.75;;;;;1.34;58.66;102480.88;5077487;28;45105;-75
2024/01/11 06:10:09;;;;;;;;;44.25;39.25;;;;;1.16;59.15;102447.34;5077817;28;45264;-76
2024/01/11 06:12:35;;;;;;;;;42.25;32.50;;;;;1.31;58.41;102473.13;5085388;28;45616;-77
2024/01/11 06:15:01;;;;;;;;;46.50;38.75;;;;;1.29;58.46;102474.06;5090696;28;45105;-76
2024/01/11 06:17:26;;;;;;;;;46.33;38.33;;;;;1.13;58.22;102450.03;5075665;28;45178;-76
2024/01/11 06:19:52;;;;;;;;;53.25;41.50;;;;;1.17;59.17;102498.81;5084044;28;45164;-77
2024/01/11 06:22:18;;;;;;;;;45.50;38.00;;;;;0.56;59.41;102406.16;5072456;28;45494;-79
2024/01/11 06:24:43;;;;;;;;;44.25;38.25;;;;;1.10;59.63;102497.28;5092817;28;45447;-76
2024/01/11 06:27:09;;;;;;;;;42.00;33.00;;;;;1.07;59.47;102505.22;5094723;28;44900;-76
2024/01/11 06:29:34;;;;;;;;;48.75;38.50;;;;;1.08;59.53;102520.91;5064830;28;45210;-76
2024/01/11 06:31:59;;;;;;;;;41.25;34.75;;;;;0.98;59.61;102495.81;5093168;28;45508;-75
2024/01/11 06:34:25;;;;;;;;;50.00;42.00;;;;;0.75;59.52;102454.53;5090518;28;45155;-77
2024/01/11 06:36:50;;;;;;;;;43.00;36.33;;;;;1.14;59.47;102491.06;5094487;28;45022;-76
2024/01/11 06:39:15;;;;;;;;;46.00;38.50;;;;;1.18;59.55;102485.69;5075273;28;44767;-78
2024/01/11 06:41:41;;;;;;;;;36.67;32.67;;;;;1.09;58.97;102465.00;5074766;28;46729;-76
2024/01/11 06:44:06;;;;;;;;;41.33;37.33;;;;;1.25;58.70;102502.13;5065304;28;45562;-78
2024/01/11 06:46:31;;;;;;;;;54.75;42.50;;;;;1.00;59.40;102499.28;5076447;28;45167;-77
2024/01/11 06:48:57;;;;;;;;;48.00;38.00;;;;;0.96;59.11;102507.25;5075006;28;45149;-76
2024/01/11 06:51:23;;;;;;;;;41.50;34.25;;;;;0.77;59.56;102475.44;5074638;28;45569;-77
2024/01/11 06:53:49;;;;;;;;;48.75;36.75;;;;;1.12;59.78;102540.00;5081765;28;45915;-77
2024/01/11 06:56:16;;;;;;;;;50.33;39.00;;;;;0.97;59.88;102522.06;5080082;28;45685;-78
2024/01/11 06:58:41;;;;;;;;;42.33;35.67;;;;;1.14;59.53;102530.34;5067823;28;45752;-79
2024/01/11 07:01:07;;;;;;;;;46.75;38.75;;;;;1.41;59.61;102555.84;5056367;28;45479;-77
2024/01/11 07:03:32;;;;;;;;;44.00;39.75;;;;;1.41;59.25;102550.59;5066241;28;45479;-79
2024/01/11 07:05:58;;;;;;;;;40.25;35.75;;;;;1.19;58.57;102523.22;5076811;28;45284;-78
2024/01/11 07:08:23;;;;;;;;;49.75;40.75;;;;;1.38;59.50;102563.75;5077296;28;45578;-78
2024/01/11 07:10:48;;;;;;;;;42.00;37.25;;;;;1.49;59.26;102564.34;5076242;28;46202;-79
2024/01/11 07:13:16;;;;;;;;;43.50;37.50;;;;;1.26;58.93;102527.41;5058259;28;45886;-77
2024/01/11 07:15:42;;;;;;;;;48.00;38.75;;;;;1.14;59.29;102493.66;5080924;28;45293;-77
2024/01/11 07:18:07;;;;;;;;;48.00;35.25;;;;;1.17;59.64;102511.91;5082955;28;45530;-79
2024/01/11 07:20:33;;;;;;;;;41.67;37.33;;;;;1.51;59.04;102567.78;5080591;28;45468;-79
2024/01/11 07:22:59;;;;;;;;;47.00;39.33;;;;;1.50;58.89;102545.09;5081730;28;45498;-79
2024/01/11 07:25:24;;;;;;;;;43.67;38.00;;;;;1.41;58.89;102540.13;5079662;28;45534;-80
2024/01/11 07:27:49;;;;;;;;;49.00;40.00;;;;;1.48;58.75;102567.00;5075581;28;45702;-79
2024/01/11 07:30:18;;;;;;;;;43.25;39.25;;;;;1.56;58.75;102579.91;5085104;28;46105;-80
2024/01/11 07:32:44;;;;;;;;;53.75;41.50;;;;;1.58;59.14;102578.94;5082896;28;45487;-80
2024/01/11 07:35:10;;;;;;;;;46.00;40.50;;;;;1.04;59.39;102549.84;5071070;28;45321;-77
2024/01/11 07:37:37;;;;;;;;;56.75;42.00;;;;;0.99;60.51;102581.34;5069113;28;45579;-77
2024/01/11 07:40:10;;;;;;;;;52.50;41.75;;;;;1.07;60.64;102594.28;5076640;28;45431;-76
2024/01/11 07:42:39;;;;;;;;;47.50;38.50;;;;;0.97;60.63;102553.47;5081750;28;45452;-80
2024/01/11 07:45:06;;;;;;;;;48.75;42.00;;;;;1.16;60.64;102583.56;5078062;28;45472;-76
2024/01/11 07:47:32;;;;;;;;;39.50;32.25;;;;;1.21;60.53;102584.31;5071980;28;45449;-77
2024/01/11 07:49:58;;;;;;;;;48.75;41.00;;;;;1.18;60.48;102587.84;5078903;28;46292;-80
2024/01/11 07:52:23;;;;;;;;;52.50;42.75;;;;;1.21;60.49;102600.03;5079104;28;46290;-79
2024/01/11 07:54:49;;;;;;;;;49.33;41.00;;;;;1.09;60.65;102574.13;5063678;28;45403;-78
2024/01/11 07:57:14;;;;;;;;;39.00;35.33;;;;;1.18;60.31;102579.13;5057755;28;45409;-77
2024/01/11 07:59:39;;;;;;;;;44.75;38.00;;;;;1.30;60.58;102594.56;5075628;28;45321;-76
2024/01/11 08:02:06;;;;;;;;;46.50;39.25;;;;;1.26;60.61;102586.81;5093215;28;44944;-77
2024/01/11 08:04:31;;;;;;;;;49.25;41.50;;;;;1.30;60.40;102605.03;5091114;28;45710;-76
2024/01/11 08:06:59;;;;;;;;;48.00;41.00;;;;;1.33;60.36;102619.81;5091804;28;45302;-77
2024/01/11 08:09:25;;;;;;;;;68.75;45.50;;;;;1.16;60.19;102586.19;5092104;28;45995;-77
2024/01/11 08:11:52;;;;;;;;;47.75;40.75;;;;;1.06;60.03;102558.50;5093282;28;45021;-77
2024/01/11 08:14:18;;;;;;;;;52.75;42.75;;;;;1.41;60.08;102608.25;5082649;28;45462;-76
2024/01/11 08:16:43;;;;;;;;;56.75;42.25;;;;;1.36;60.20;102598.75;5057524;28;45685;-78
2024/01/11 08:19:10;;;;;;;;;50.25;41.75;;;;;1.11;60.03;102557.47;5075235;28;46402;-77
2024/01/11 08:21:35;;;;;;;;;50.00;41.25;;;;;1.49;59.79;102600.19;5058521;28;45775;-77
2024/01/11 08:24:02;;;;;;;;;48.25;40.50;;;;;1.58;59.43;102613.03;5075022;28;45271;-75
2024/01/11 08:26:28;;;;;;;;;58.75;46.00;;;;;1.49;59.39;102598.41;5075521;28;45853;-74
2024/01/11 08:28:53;;;;;;;;;46.75;42.00;;;;;0.81;60.07;102483.19;5073056;28;45479;-76
2024/01/11 08:31:19;;;;;;;;;56.00;44.50;;;;;1.38;59.77;102562.91;5074805;28;45400;-76
2024/01/11 08:33:45;;;;;;;;;49.25;41.50;;;;;1.55;59.29;102586.03;5050009;28;45337;-77
2024/01/11 08:36:11;;;;;;;;;42.25;37.25;;;;;1.50;59.39;102568.69;5037138;28;45367;-77
2024/01/11 08:38:36;;;;;;;;;57.00;47.25;;;;;1.33;58.47;102546.44;5065477;28;46883;-77
2024/01/11 08:41:03;;;;;;;;;49.50;39.50;;;;;1.50;59.42;102597.50;5073448;28;45228;-77
2024/01/11 08:43:28;;;;;;;;;44.00;37.25;;;;;1.69;59.31;102610.13;5075408;28;45361;-76
2024/01/11 08:45:54;;;;;;;;;48.00;40.00;;;;;1.82;59.55;102598.41;5075255;28;45443;-76
2024/01/11 08:48:20;;;;;;;;;57.00;43.75;;;;;1.59;58.08;102540.47;5072273;28;45349;-79
2024/01/11 08:50:46;;;;;;;;;45.25;38.00;;;;;2.33;58.06;102616.19;5057351;28;45554;-79
2024/01/11 08:53:11;;;;;;;;;54.50;44.00;;;;;2.16;57.07;102529.22;5058542;28;45251;-77
2024/01/11 08:55:37;;;;;;;;;50.00;40.00;;;;;2.86;55.97;102590.03;5057710;28;45409;-78
2024/01/11 08:58:06;;;;;;;;;52.50;43.25;;;;;2.90;54.59;102547.84;5057920;28;47052;-79
2024/01/11 09:00:37;;;;;;;;;51.00;39.33;;;;;3.42;55.09;102564.50;5056467;28;45418;-77
2024/01/11 09:03:03;;;;;;;;;46.25;41.50;;;;;3.88;52.82;102500.53;5056602;28;45331;-76
2024/01/11 09:05:29;;;;;;;;;55.25;42.00;;;;;5.50;50.39;102609.91;5056679;28;45439;-77
2024/01/11 09:07:55;;;;;;;;;56.25;44.75;;;;;6.28;47.79;102562.44;5055755;28;45363;-77
2024/01/11 09:10:20;;;;;;;;;50.75;40.25;;;;;7.31;44.45;102574.13;5056104;28;45469;-79
2024/01/11 09:12:46;;;;;;;;;53.25;44.00;;;;;8.24;43.49;102596.53;5055462;28;45287;-78
2024/01/11 09:15:12;;;;;;;;;55.00;40.75;;;;;8.91;40.99;102614.94;5071740;28;44819;-78
2024/01/11 09:17:38;;;;;;;;;51.50;43.00;;;;;9.07;39.90;102629.06;5075292;28;46009;-77
2024/01/11 09:20:04;;;;;;;;;54.33;42.00;;;;;8.70;40.91;102585.19;5075069;28;45608;-78
2024/01/11 09:22:29;;;;;;;;;51.67;40.00;;;;;7.60;41.73;102605.22;5075427;28;45308;-77
2024/01/11 09:24:55;;;;;;;;;49.33;40.33;;;;;6.72;44.07;102625.53;5061059;28;45479;-77
2024/01/11 09:27:21;;;;;;;;;56.25;45.25;;;;;5.54;46.41;102627.31;5055391;28;48038;-79
2024/01/11 09:29:46;;;;;;;;;46.25;37.75;;;;;4.65;48.16;102603.75;5054969;28;45591;-77
2024/01/11 09:32:12;;;;;;;;;52.50;41.50;;;;;4.53;49.36;102620.91;5054369;28;45373;-78
2024/01/11 09:34:38;;;;;;;;;58.00;45.50;;;;;4.45;50.85;102616.84;5065596;28;45240;-77
2024/01/11 09:37:03;;;;;;;;;49.50;38.75;;;;;4.39;50.73;102632.88;5074433;28;45364;-79
2024/01/11 09:39:29;;;;;;;;;48.67;41.67;;;;;4.38;50.75;102616.19;5074049;28;45540;-79
2024/01/11 09:42:03;;;;;;;;;56.75;44.00;;;;;4.39;50.40;102623.19;5074053;28;45401;-79
2024/01/11 09:44:29;;;;;;;;;53.75;40.75;;;;;4.03;50.67;102601.75;5074017;28;45527;-79
2024/01/11 09:46:55;;;;;;;;;61.00;48.50;;;;;4.03;50.52;102635.09;5073029;28;47111;-78
2024/01/11 09:49:22;;;;;;;;;53.50;43.00;;;;;3.88;51.25;102647.91;5053869;28;45445;-77
2024/01/11 09:51:49;;;;;;;;;62.67;48.00;;;;;3.77;50.95;102638.66;5074886;28;45554;-78
2024/01/11 09:54:15;;;;;;;;;50.00;42.00;;;;;3.72;51.54;102615.13;5070222;28;45358;-78
2024/01/11 09:56:43;;;;;;;;;57.67;42.33;;;;;3.75;50.74;102625.56;5056346;28;45737;-79
2024/01/11 09:59:10;;;;;;;;;43.25;40.25;;;;;3.44;51.73;102612.63;5062100;28;45449;-79
2024/01/11 10:01:36;;;;;;;;;56.75;45.00;;;;;3.42;52.10;102637.25;5077688;28;45279;-80
2024/01/11 10:04:03;;;;;;;;;42.75;37.25;;;;;3.28;51.53;102612.28;5073554;28;45758;-78
2024/01/11 10:06:33;;;;;;;;;51.00;39.25;;;;;2.68;51.98;102525.84;5038543;28;47506;-77
2024/01/11 10:09:02;;;;;;;;;55.25;44.75;;;;;3.05;51.70;102630.56;5069887;28;45373;-80
2024/01/11 10:11:27;;;;;;;;;58.50;45.25;;;;;2.81;53.13;102644.50;5059874;28;45367;-78
2024/01/11 10:13:57;;;;;;;;;65.00;51.25;;;;;2.63;52.97;102620.53;5059164;28;45728;-78
2024/01/11 10:16:24;;;;;;;;;62.00;50.00;;;;;2.56;54.32;102611.09;5076358;28;46548;-77
2024/01/11 10:18:49;;;;;;;;;67.50;52.25;;;;;2.67;52.88;102643.16;5039331;28;45363;-77
2024/01/11 10:21:16;;;;;;;;;60.75;46.75;;;;;2.05;52.82;102572.38;5038275;28;45294;-78
2024/01/11 10:23:41;;;;;;;;;50.50;41.75;;;;;2.42;53.68;102635.16;5021503;28;45506;-77
2024/01/11 10:26:10;;;;;;;;;58.00;47.00;;;;;2.16;53.15;102589.56;5075784;28;46147;-78
2024/01/11 10:28:37;;;;;;;;;57.75;44.75;;;;;2.01;52.59;102555.03;5076296;28;45316;-75
2024/01/11 10:31:06;;;;;;;;;56.75;44.25;;;;;2.38;53.26;102615.13;5056689;28;45377;-78
2024/01/11 10:33:33;;;;;;;;;61.00;45.25;;;;;2.31;53.16;102610.13;5056471;28;45379;-79
2024/01/11 10:36:00;;;;;;;;;59.00;47.00;;;;;1.99;53.56;102587.41;5072390;28;45310;-79
2024/01/11 10:38:38;;;;;;;;;56.00;45.00;;;;;2.00;54.10;102581.28;5059146;28;45559;-81
2024/01/11 10:41:06;;;;;;;;;64.50;50.75;;;;;2.36;53.36;102616.06;5060144;28;45401;-79
2024/01/11 10:43:37;;;;;;;;;56.00;45.50;;;;;2.11;53.63;102590.56;5077604;28;45413;-80
2024/01/11 10:46:06;;;;;;;;;53.75;44.25;;;;;2.11;53.33;102594.94;5050141;28;1117914;-79
2024/01/11 10:48:35;;;;;;;;;58.25;48.50;;;;;2.20;53.11;102614.81;5089281;28;45385;-79
2024/01/11 10:51:06;;;;;;;;;64.00;50.00;;;;;1.79;53.63;102577.50;5078089;28;45374;-78
2024/01/11 10:53:33;;;;;;;;;39.75;36.75;;;;;1.99;53.67;102625.00;5051522;28;45203;-78
2024/01/11 10:56:01;;;;;;;;;58.50;46.75;;;;;1.83;54.40;102602.75;5043701;28;45748;-78
2024/01/11 10:58:27;;;;;;;;;62.50;43.75;;;;;1.94;54.47;102639.16;5055759;27;45174;-77
2024/01/11 11:00:55;;;;;;;;;61.50;47.50;;;;;1.99;54.48;102637.25;5078136;27;45244;-80
2024/01/11 11:03:23;;;;;;;;;63.25;50.00;;;;;1.21;54.07;102476.91;5077475;28;45175;-77
2024/01/11 11:05:56;;;;;;;;;60.75;50.00;;;;;1.74;54.01;102553.16;5096436;27;46227;-78
2024/01/11 11:08:26;;;;;;;;;66.75;50.75;;;;;1.60;54.00;102537.81;5096507;27;45085;-79
2024/01/11 11:10:57;;;;;;;;;50.75;44.25;;;;;2.25;53.49;102628.69;5085922;28;44916;-79